createdAt,value
2018-02-08T00:00:53.277Z,42.77
2018-02-08T00:03:20.143Z,38.47
2018-02-08T00:05:47.096Z,43.93
2018-02-08T00:08:14.060Z,42.83
2018-02-08T00:10:41.027Z,40.27
2018-02-08T00:13:07.901Z,41.70
2018-02-08T00:15:34.827Z,39.47
2018-02-08T00:18:01.696Z,39.17
2018-02-08T00:20:28.569Z,40.33
2018-02-08T00:22:55.458Z,43.70
2018-02-08T00:25:22.702Z,41.97
2018-02-08T00:27:49.628Z,41.17
2018-02-08T00:30:16.497Z,42.93
2018-02-08T00:32:43.363Z,44.33
2018-02-08T00:35:10.312Z,39.23
2018-02-08T00:37:37.244Z,39.07
2018-02-08T00:40:04.112Z,43.13
2018-02-08T00:42:30.969Z,43.10
2018-02-08T00:44:57.896Z,39.63
2018-02-08T00:47:25.164Z,40.73
2018-02-08T00:49:52.461Z,40.50
2018-02-08T00:52:19.342Z,41.30
2018-02-08T00:54:46.287Z,42.30
2018-02-08T00:57:13.153Z,45.03
2018-02-08T00:59:40.003Z,41.73
2018-02-08T01:02:06.878Z,44.97
2018-02-08T01:04:33.766Z,44.10
2018-02-08T01:07:00.616Z,40.83
2018-02-08T01:09:27.488Z,42.60
2018-02-08T01:11:54.751Z,45.30
2018-02-08T01:14:22.067Z,42.60
2018-02-08T01:16:48.920Z,45.23
2018-02-08T01:19:15.768Z,45.83
2018-02-08T01:21:42.671Z,46.30
2018-02-08T01:24:09.524Z,43.73
2018-02-08T01:26:36.452Z,44.90
2018-02-08T01:29:03.298Z,46.60
2018-02-08T01:31:30.270Z,44.30
2018-02-08T01:33:57.135Z,39.73
2018-02-08T01:36:24.079Z,40.77
2018-02-08T01:38:51.234Z,39.70
2018-02-08T01:41:18.472Z,41.63
2018-02-08T01:43:45.787Z,45.93
2018-02-08T01:46:12.666Z,38.83
2018-02-08T01:48:39.512Z,41.77
2018-02-08T01:51:06.389Z,41.30
2018-02-08T01:53:33.330Z,40.23
2018-02-08T01:56:00.367Z,45.73
2018-02-08T01:58:27.359Z,40.97
2018-02-08T02:00:54.204Z,40.90
2018-02-08T02:03:21.155Z,41.00
2018-02-08T02:05:48.004Z,41.30
2018-02-08T02:08:14.966Z,42.20
2018-02-08T02:10:41.941Z,40.10
2018-02-08T02:13:08.807Z,42.50
2018-02-08T02:15:35.668Z,43.10
2018-02-08T02:18:02.711Z,42.50
2018-02-08T02:20:29.572Z,42.13
2018-02-08T02:22:56.526Z,43.80
2018-02-08T02:25:23.480Z,41.40
2018-02-08T02:27:50.429Z,42.47
2018-02-08T02:30:17.304Z,43.43
2018-02-08T02:32:44.256Z,45.93
2018-02-08T02:35:11.113Z,44.50
2018-02-08T02:37:38.066Z,43.03
2018-02-08T02:40:04.937Z,42.03
2018-02-08T02:42:31.827Z,47.40
2018-02-08T02:44:58.690Z,44.67
2018-02-08T02:47:25.958Z,42.20
2018-02-08T02:49:52.867Z,47.07
2018-02-08T02:52:19.717Z,40.77
2018-02-08T02:54:46.584Z,41.80
2018-02-08T02:57:13.452Z,45.30
2018-02-08T02:59:40.304Z,42.43
2018-02-08T03:02:07.367Z,48.63
2018-02-08T03:04:34.195Z,47.30
2018-02-08T03:07:01.166Z,44.93
2018-02-08T03:09:28.149Z,51.27
2018-02-08T03:11:55.024Z,46.63
2018-02-08T03:14:21.878Z,45.70
2018-02-08T03:16:48.740Z,44.27
2018-02-08T03:19:15.614Z,45.87
2018-02-08T03:21:42.921Z,45.13
2018-02-08T03:24:09.791Z,47.47
2018-02-08T03:26:36.660Z,42.47
2018-02-08T03:29:03.520Z,39.93
2018-02-08T03:31:30.466Z,40.83
2018-02-08T03:33:57.430Z,43.33
2018-02-08T03:36:24.286Z,41.60
2018-02-08T03:38:51.245Z,43.13
2018-02-08T03:41:18.092Z,45.17
2018-02-08T03:43:45.043Z,41.53
2018-02-08T03:46:11.883Z,45.50
2018-02-08T03:48:38.865Z,43.73
2018-02-08T03:51:05.704Z,46.63
2018-02-08T03:53:32.678Z,47.27
2018-02-08T03:55:59.665Z,47.90
2018-02-08T03:58:26.613Z,44.60
2018-02-08T04:00:53.542Z,42.13
2018-02-08T04:03:20.504Z,47.33
2018-02-08T04:05:47.370Z,44.97
2018-02-08T04:08:14.248Z,48.87
2018-02-08T04:10:41.096Z,45.27
2018-02-08T04:13:07.956Z,48.17
2018-02-08T04:15:35.001Z,48.27
2018-02-08T04:18:01.956Z,42.50
2018-02-08T04:20:28.831Z,46.27
2018-02-08T04:22:55.793Z,44.93
2018-02-08T04:25:23.150Z,45.03
2018-02-08T04:27:50.102Z,52.13
2018-02-08T04:30:16.959Z,45.63
2018-02-08T04:32:43.925Z,47.77
2018-02-08T04:35:10.764Z,47.80
2018-02-08T04:37:37.723Z,43.80
2018-02-08T04:40:16.511Z,46.30
2018-02-08T04:42:55.376Z,51.10
2018-02-08T04:45:34.705Z,43.67
2018-02-08T04:48:07.485Z,46.77
2018-02-08T04:50:34.333Z,47.30
2018-02-08T04:53:01.201Z,50.47
2018-02-08T04:55:28.135Z,54.50
2018-02-08T04:57:54.978Z,53.70
2018-02-08T05:00:21.957Z,59.03
2018-02-08T05:02:48.900Z,61.73
2018-02-08T05:05:15.791Z,55.37
2018-02-08T05:07:42.808Z,55.07
2018-02-08T05:10:10.028Z,52.90
2018-02-08T05:12:36.896Z,52.10
2018-02-08T05:15:04.213Z,51.93
2018-02-08T05:17:31.069Z,54.37
2018-02-08T05:19:57.965Z,53.60
2018-02-08T05:22:24.809Z,55.47
2018-02-08T05:24:51.671Z,53.87
2018-02-08T05:27:18.603Z,57.70
2018-02-08T05:29:45.463Z,62.43
2018-02-08T05:32:12.307Z,61.63
2018-02-08T05:34:39.260Z,60.17
2018-02-08T05:37:06.103Z,61.10
2018-02-08T05:39:32.943Z,59.43
2018-02-08T05:42:00.197Z,64.83
2018-02-08T05:44:27.601Z,60.20
2018-02-08T05:46:54.439Z,64.00
2018-02-08T05:49:21.732Z,62.80
2018-02-08T05:51:48.612Z,57.50
2018-02-08T05:54:15.551Z,52.97
2018-02-08T05:56:42.408Z,53.27
2018-02-08T05:59:09.477Z,60.60
2018-02-08T06:01:36.367Z,58.73
2018-02-08T06:04:03.304Z,57.07
2018-02-08T06:06:30.364Z,60.03
2018-02-08T06:08:57.812Z,68.70
2018-02-08T06:11:24.768Z,59.53
2018-02-08T06:13:51.636Z,61.43
2018-02-08T06:16:18.550Z,59.93
2018-02-08T06:18:45.391Z,56.80
2018-02-08T06:21:12.287Z,64.47
2018-02-08T06:23:39.214Z,63.70
2018-02-08T06:26:06.127Z,70.77
2018-02-08T06:28:33.081Z,56.00
2018-02-08T06:30:59.994Z,56.93
2018-02-08T06:33:26.939Z,62.23
2018-02-08T06:35:53.783Z,60.97
2018-02-08T06:38:20.637Z,56.63
2018-02-08T06:40:47.587Z,53.43
2018-02-08T06:43:14.456Z,58.00
2018-02-08T06:45:41.308Z,56.20
2018-02-08T06:48:08.189Z,58.43
2018-02-08T06:50:35.048Z,62.27
2018-02-08T06:53:01.988Z,53.37
2018-02-08T06:55:28.855Z,58.10
2018-02-08T06:57:55.804Z,57.37
2018-02-08T07:00:22.643Z,54.57
2018-02-08T07:02:49.545Z,56.73
2018-02-08T07:05:16.403Z,57.23
2018-02-08T07:07:43.667Z,52.60
2018-02-08T07:10:10.916Z,52.70
2018-02-08T07:12:37.776Z,56.43
2018-02-08T07:15:04.621Z,55.20
2018-02-08T07:17:31.554Z,55.37
2018-02-08T07:19:58.421Z,55.37
2018-02-08T07:22:25.764Z,53.27
2018-02-08T07:24:53.037Z,59.13
2018-02-08T07:27:20.032Z,57.63
2018-02-08T07:29:46.965Z,59.50
2018-02-08T07:32:13.860Z,57.53
2018-02-08T07:34:40.934Z,59.60
2018-02-08T07:37:07.734Z,62.97
2018-02-08T07:39:34.692Z,62.23
2018-02-08T07:42:01.604Z,61.50
2018-02-08T07:44:28.492Z,63.17
2018-02-08T07:46:55.507Z,60.43
2018-02-08T07:49:22.371Z,60.03
2018-02-08T07:51:49.288Z,65.00
2018-02-08T07:54:16.126Z,63.03
2018-02-08T07:56:42.981Z,64.73
2018-02-08T07:59:09.852Z,62.77
2018-02-08T08:01:36.801Z,65.10
2018-02-08T08:04:03.676Z,59.97
2018-02-08T08:06:30.539Z,62.93
2018-02-08T08:08:57.591Z,69.13
2018-02-08T08:11:24.431Z,63.73
2018-02-08T08:13:51.403Z,71.77
2018-02-08T08:16:18.263Z,62.93
2018-02-08T08:18:45.137Z,61.57
2018-02-08T08:21:11.972Z,58.83
2018-02-08T08:23:38.824Z,57.87
2018-02-08T08:26:05.696Z,62.37
2018-02-08T08:28:32.560Z,59.00
2018-02-08T08:30:59.408Z,58.37
2018-02-08T08:33:26.291Z,62.93
2018-02-08T08:35:53.232Z,59.97
2018-02-08T08:38:20.177Z,56.40
2018-02-08T08:40:47.052Z,58.67
2018-02-08T08:43:13.979Z,52.73
2018-02-08T08:45:40.824Z,58.13
2018-02-08T08:48:07.703Z,56.97
2018-02-08T08:50:34.603Z,55.30
2018-02-08T08:53:01.414Z,55.87
2018-02-08T08:55:28.299Z,59.40
2018-02-08T08:57:55.167Z,57.70
2018-02-08T09:00:22.036Z,53.80
2018-02-08T09:02:48.952Z,61.90
2018-02-08T09:05:15.797Z,59.80
2018-02-08T09:07:42.659Z,56.23
2018-02-08T09:10:09.514Z,55.03
2018-02-08T09:12:36.493Z,54.50
2018-02-08T09:15:03.425Z,55.17
2018-02-08T09:17:30.403Z,60.23
2018-02-08T09:19:57.265Z,54.53
2018-02-08T09:22:24.253Z,57.30
2018-02-08T09:24:51.055Z,58.73
2018-02-08T09:27:17.916Z,56.90
2018-02-08T09:29:44.815Z,56.70
2018-02-08T09:32:11.687Z,51.77
2018-02-08T09:34:38.564Z,59.77
2018-02-08T09:37:05.799Z,56.37
2018-02-08T09:39:32.722Z,56.73
2018-02-08T09:41:59.684Z,55.10
2018-02-08T09:44:26.553Z,63.27
2018-02-08T09:46:53.409Z,58.30
2018-02-08T09:49:20.367Z,58.70
2018-02-08T09:51:47.315Z,56.43
2018-02-08T09:54:14.189Z,52.60
2018-02-08T09:56:41.200Z,55.10
2018-02-08T09:59:08.097Z,60.43
2018-02-08T10:01:34.939Z,53.10
2018-02-08T10:04:01.824Z,57.20
2018-02-08T10:06:28.735Z,54.70
2018-02-08T10:08:56.008Z,51.80
2018-02-08T10:11:22.868Z,54.90
2018-02-08T10:13:49.733Z,52.43
2018-02-08T10:16:16.594Z,58.50
2018-02-08T10:18:43.462Z,56.53
2018-02-08T10:21:10.322Z,54.60
2018-02-08T10:23:37.180Z,52.17
2018-02-08T10:26:04.068Z,57.43
2018-02-08T10:28:30.900Z,50.90
2018-02-08T10:30:57.840Z,60.33
2018-02-08T10:33:24.704Z,55.07
2018-02-08T10:35:51.615Z,55.47
2018-02-08T10:38:18.946Z,53.37
2018-02-08T10:40:45.800Z,54.50
2018-02-08T10:43:12.735Z,52.97
2018-02-08T10:45:39.611Z,61.53
2018-02-08T10:48:06.564Z,51.37
2018-02-08T10:50:33.618Z,56.63
2018-02-08T10:53:00.599Z,56.77
2018-02-08T10:55:27.576Z,53.30
2018-02-08T10:57:54.487Z,58.03
2018-02-08T11:00:21.444Z,51.40
2018-02-08T11:02:48.675Z,60.20
2018-02-08T11:05:15.959Z,56.10
2018-02-08T11:07:43.266Z,57.97
2018-02-08T11:10:10.109Z,58.00
2018-02-08T11:12:37.063Z,54.87
2018-02-08T11:15:03.912Z,54.13
2018-02-08T11:17:30.782Z,52.80
2018-02-08T11:19:57.767Z,50.33
2018-02-08T11:22:24.632Z,54.00
2018-02-08T11:24:51.517Z,53.10
2018-02-08T11:27:18.840Z,52.03
2018-02-08T11:29:45.684Z,51.87
2018-02-08T11:32:12.560Z,51.43
2018-02-08T11:34:39.416Z,52.97
2018-02-08T11:37:06.241Z,59.40
2018-02-08T11:39:33.114Z,56.70
2018-02-08T11:41:59.961Z,53.87
2018-02-08T11:44:26.946Z,53.13
2018-02-08T11:46:53.877Z,56.33
2018-02-08T11:49:21.120Z,52.50
2018-02-08T11:51:48.414Z,56.00
2018-02-08T11:54:15.286Z,53.53
2018-02-08T11:56:42.242Z,53.30
2018-02-08T11:59:09.187Z,51.23
2018-02-08T12:01:36.177Z,51.30
2018-02-08T12:04:03.094Z,59.63
2018-02-08T12:06:30.120Z,57.13
2018-02-08T12:08:57.463Z,57.90
2018-02-08T12:11:24.347Z,54.37
2018-02-08T12:13:51.220Z,52.30
2018-02-08T12:16:18.534Z,57.60
2018-02-08T12:18:45.380Z,54.73
2018-02-08T12:21:12.250Z,54.27
2018-02-08T12:23:39.140Z,55.83
2018-02-08T12:26:06.008Z,52.87
2018-02-08T12:28:32.898Z,55.20
2018-02-08T12:30:59.767Z,50.80
2018-02-08T12:33:26.680Z,54.57
2018-02-08T12:35:53.683Z,48.10
2018-02-08T12:38:20.664Z,57.13
2018-02-08T12:40:47.590Z,53.67
2018-02-08T12:43:14.888Z,52.83
2018-02-08T12:45:41.917Z,49.27
2018-02-08T12:48:09.157Z,48.40
2018-02-08T12:50:36.435Z,52.73
2018-02-08T12:53:03.380Z,55.97
2018-02-08T12:55:30.657Z,52.67
2018-02-08T12:57:58.083Z,53.13
2018-02-08T13:00:24.955Z,53.33
2018-02-08T13:02:51.799Z,52.03
2018-02-08T13:05:18.655Z,53.77
2018-02-08T13:07:45.600Z,51.37
2018-02-08T13:10:12.559Z,51.60
2018-02-08T13:12:39.456Z,51.87
2018-02-08T13:15:06.800Z,48.93
2018-02-08T13:17:33.660Z,53.37
2018-02-08T13:20:00.557Z,56.63
2018-02-08T13:22:27.838Z,53.20
2018-02-08T13:24:54.828Z,56.80
2018-02-08T13:27:21.697Z,58.63
2018-02-08T13:29:48.552Z,51.30
2018-02-08T13:32:15.423Z,51.83
2018-02-08T13:34:42.355Z,55.03
2018-02-08T13:37:09.236Z,53.40
2018-02-08T13:39:36.198Z,55.83
2018-02-08T13:42:03.105Z,49.93
2018-02-08T13:44:29.971Z,53.23
2018-02-08T13:46:56.937Z,54.27
2018-02-08T13:49:23.817Z,54.27
2018-02-08T13:51:50.748Z,53.27
2018-02-08T13:54:17.707Z,49.10
2018-02-08T13:56:44.581Z,54.40
2018-02-08T13:59:11.546Z,51.00
2018-02-08T14:01:38.486Z,52.20
2018-02-08T14:04:05.444Z,52.53
2018-02-08T14:06:32.471Z,53.67
2018-02-08T14:08:59.884Z,55.87
2018-02-08T14:11:26.829Z,54.90
2018-02-08T14:13:53.720Z,51.40
2018-02-08T14:16:20.584Z,57.23
2018-02-08T14:18:48.694Z,52.70
2018-02-08T14:21:16.003Z,55.57
2018-02-08T14:23:42.966Z,57.80
2018-02-08T14:26:09.820Z,59.40
2018-02-08T14:28:36.777Z,53.53
2018-02-08T14:31:03.826Z,53.87
2018-02-08T14:33:30.683Z,54.57
2018-02-08T14:35:57.643Z,52.80
2018-02-08T14:38:24.595Z,56.13
2018-02-08T14:40:51.475Z,52.67
2018-02-08T14:43:18.443Z,56.10
2018-02-08T14:45:45.291Z,56.97
2018-02-08T14:48:12.132Z,53.90
2018-02-08T14:50:39.096Z,61.27
2018-02-08T14:53:05.968Z,50.63
2018-02-08T14:55:32.854Z,53.47
2018-02-08T14:57:59.843Z,56.43
2018-02-08T15:00:26.921Z,56.00
2018-02-08T15:02:53.766Z,58.47
2018-02-08T15:05:20.634Z,55.43
2018-02-08T15:07:47.496Z,55.97
2018-02-08T15:10:14.392Z,52.87
2018-02-08T15:12:41.229Z,55.23
2018-02-08T15:15:08.197Z,61.73
2018-02-08T15:17:35.133Z,55.87
2018-02-08T15:20:02.045Z,56.47
2018-02-08T15:22:29.108Z,59.60
2018-02-08T15:24:55.930Z,61.53
2018-02-08T15:27:22.780Z,54.77
2018-02-08T15:29:49.719Z,64.90
2018-02-08T15:32:16.577Z,57.33
2018-02-08T15:34:43.552Z,57.20
2018-02-08T15:37:10.401Z,57.07
2018-02-08T15:39:37.260Z,61.37
2018-02-08T15:42:04.133Z,60.10
2018-02-08T15:44:31.078Z,57.47
2018-02-08T15:46:57.958Z,62.03
2018-02-08T15:49:24.838Z,57.30
2018-02-08T15:51:52.250Z,57.53
2018-02-08T15:54:19.116Z,57.80
2018-02-08T15:56:45.968Z,54.47
2018-02-08T15:59:12.848Z,60.53
2018-02-08T16:01:39.784Z,63.03
2018-02-08T16:04:06.939Z,60.47
2018-02-08T16:06:33.797Z,67.40
2018-02-08T16:09:00.767Z,66.17
2018-02-08T16:11:27.690Z,60.47
2018-02-08T16:13:54.960Z,71.17
2018-02-08T16:16:21.933Z,64.93
2018-02-08T16:18:48.908Z,68.60
2018-02-08T16:21:15.750Z,68.00
2018-02-08T16:23:42.627Z,60.00
2018-02-08T16:26:09.497Z,61.10
2018-02-08T16:28:36.337Z,66.33
2018-02-08T16:31:03.268Z,66.30
2018-02-08T16:33:30.155Z,68.10
2018-02-08T16:35:57.142Z,66.80
2018-02-08T16:38:24.043Z,62.40
2018-02-08T16:40:50.995Z,59.40
2018-02-08T16:43:17.803Z,72.17
2018-02-08T16:45:44.696Z,67.77
2018-02-08T16:48:11.592Z,68.90
2018-02-08T16:50:38.458Z,63.33
2018-02-08T16:53:05.419Z,67.13
2018-02-08T16:55:32.437Z,60.63
2018-02-08T16:57:59.444Z,62.77
2018-02-08T17:00:26.318Z,71.57
2018-02-08T17:02:53.186Z,68.93
2018-02-08T17:05:20.031Z,60.67
2018-02-08T17:07:47.047Z,63.33
2018-02-08T17:10:14.328Z,62.50
2018-02-08T17:12:41.185Z,65.50
2018-02-08T17:15:08.184Z,63.47
2018-02-08T17:17:35.068Z,66.00
2018-02-08T17:20:02.319Z,73.93
2018-02-08T17:22:29.284Z,67.53
2018-02-08T17:24:56.171Z,68.73
2018-02-08T17:27:23.076Z,61.70
2018-02-08T17:29:50.096Z,69.87
2018-02-08T17:32:16.959Z,64.90
2018-02-08T17:34:43.808Z,64.23
2018-02-08T17:37:10.688Z,68.30
2018-02-08T17:39:37.533Z,71.07
2018-02-08T17:42:04.415Z,62.57
2018-02-08T17:44:31.380Z,70.70
2018-02-08T17:46:58.326Z,69.87
2018-02-08T17:49:25.258Z,65.60
2018-02-08T17:51:52.119Z,67.27
2018-02-08T17:54:19.084Z,66.50
2018-02-08T17:56:45.972Z,71.10
2018-02-08T17:59:12.850Z,71.10
2018-02-08T18:01:39.859Z,69.80
2018-02-08T18:04:06.720Z,62.93
2018-02-08T18:06:33.682Z,69.90
2018-02-08T18:09:00.616Z,69.00
2018-02-08T18:11:27.534Z,67.10
2018-02-08T18:13:54.417Z,70.33
2018-02-08T18:16:21.309Z,71.90
2018-02-08T18:18:48.261Z,80.47
2018-02-08T18:21:15.234Z,72.07
2018-02-08T18:23:42.187Z,68.13
2018-02-08T18:26:09.053Z,67.97
2018-02-08T18:28:35.893Z,82.07
2018-02-08T18:31:02.813Z,74.67
2018-02-08T18:33:30.075Z,64.23
2018-02-08T18:35:56.994Z,70.47
2018-02-08T18:38:23.930Z,72.20
2018-02-08T18:40:50.804Z,77.20
2018-02-08T18:43:17.752Z,80.10
2018-02-08T18:45:44.707Z,68.83
2018-02-08T18:48:11.597Z,72.30
2018-02-08T18:50:38.486Z,76.53
2018-02-08T18:53:05.400Z,84.30
2018-02-08T18:55:32.324Z,71.00
2018-02-08T18:57:59.324Z,73.03
2018-02-08T19:00:26.282Z,67.43
2018-02-08T19:02:53.101Z,68.87
2018-02-08T19:05:19.996Z,77.40
2018-02-08T19:07:46.937Z,74.60
2018-02-08T19:10:14.300Z,74.07
2018-02-08T19:12:41.168Z,71.27
2018-02-08T19:15:08.029Z,73.03
2018-02-08T19:17:34.962Z,75.67
2018-02-08T19:20:01.885Z,75.57
2018-02-08T19:22:28.767Z,78.37
2018-02-08T19:24:56.178Z,72.13
2018-02-08T19:27:23.051Z,78.67
2018-02-08T19:29:49.977Z,71.50
2018-02-08T19:32:16.829Z,71.83
2018-02-08T19:34:43.716Z,71.30
2018-02-08T19:37:10.585Z,74.60
2018-02-08T19:39:37.451Z,70.83
2018-02-08T19:42:04.321Z,78.43
2018-02-08T19:44:31.602Z,72.07
2018-02-08T19:46:58.479Z,70.43
2018-02-08T19:49:25.344Z,70.00
2018-02-08T19:51:52.331Z,67.27
2018-02-08T19:54:19.244Z,74.77
2018-02-08T19:56:46.213Z,74.63
2018-02-08T19:59:13.168Z,76.10
2018-02-08T20:01:40.018Z,70.77
2018-02-08T20:04:06.939Z,71.33
2018-02-08T20:06:33.793Z,75.17
2018-02-08T20:09:00.774Z,75.87
2018-02-08T20:11:27.695Z,68.90
2018-02-08T20:13:54.624Z,70.43
2018-02-08T20:16:21.512Z,75.93
2018-02-08T20:18:48.379Z,68.13
2018-02-08T20:21:15.295Z,69.70
2018-02-08T20:23:42.267Z,72.83
2018-02-08T20:26:09.129Z,70.30
2018-02-08T20:28:36.096Z,75.33
2018-02-08T20:31:02.965Z,75.97
2018-02-08T20:33:29.892Z,74.20
2018-02-08T20:35:56.777Z,87.43
2018-02-08T20:38:23.659Z,81.43
2018-02-08T20:40:50.511Z,73.07
2018-02-08T20:43:17.784Z,75.73
2018-02-08T20:45:45.039Z,76.83
2018-02-08T20:48:11.993Z,70.87
2018-02-08T20:50:38.871Z,72.27
2018-02-08T20:53:05.826Z,74.13
2018-02-08T20:55:33.084Z,73.97
2018-02-08T20:57:59.954Z,68.47
2018-02-08T21:00:27.220Z,81.77
2018-02-08T21:02:54.511Z,74.87
2018-02-08T21:05:21.448Z,70.93
2018-02-08T21:07:48.364Z,74.50
2018-02-08T21:10:15.216Z,64.97
2018-02-08T21:12:42.157Z,71.10
2018-02-08T21:15:09.028Z,69.57
2018-02-08T21:17:36.587Z,68.33
2018-02-08T21:20:03.567Z,70.67
2018-02-08T21:22:30.524Z,77.20
2018-02-08T21:24:57.508Z,76.90
2018-02-08T21:27:24.419Z,73.10
2018-02-08T21:29:51.480Z,72.57
2018-02-08T21:32:18.471Z,77.40
2018-02-08T21:34:45.350Z,66.67
2018-02-08T21:37:12.962Z,67.53
2018-02-08T21:39:39.802Z,80.43
2018-02-08T21:42:07.073Z,72.90
2018-02-08T21:44:33.985Z,73.97
2018-02-08T21:47:00.911Z,74.67
2018-02-08T21:49:27.779Z,70.10
2018-02-08T21:51:54.742Z,81.40
2018-02-08T21:54:21.616Z,72.17
2018-02-08T21:56:48.475Z,83.13
2018-02-08T21:59:15.358Z,76.43
2018-02-08T22:01:42.299Z,80.90
2018-02-08T22:04:09.581Z,71.03
2018-02-08T22:06:36.836Z,68.37
2018-02-08T22:09:03.721Z,74.20
2018-02-08T22:11:30.587Z,75.23
2018-02-08T22:13:57.473Z,71.40
2018-02-08T22:16:24.320Z,69.57
2018-02-08T22:18:51.179Z,72.90
2018-02-08T22:21:18.068Z,72.13
2018-02-08T22:23:44.912Z,65.60
2018-02-08T22:26:11.797Z,69.50
2018-02-08T22:28:38.716Z,74.63
2018-02-08T22:31:05.985Z,68.33
2018-02-08T22:33:33.050Z,67.27
2018-02-08T22:36:00.214Z,71.13
2018-02-08T22:38:27.078Z,65.47
2018-02-08T22:40:54.016Z,63.80
2018-02-08T22:43:20.898Z,65.17
2018-02-08T22:45:47.748Z,70.50
2018-02-08T22:48:14.676Z,74.00
2018-02-08T22:50:41.540Z,68.77
2018-02-08T22:53:08.584Z,74.03
2018-02-08T22:55:35.846Z,71.77
2018-02-08T22:58:02.733Z,74.30
2018-02-08T23:00:29.670Z,64.90
2018-02-08T23:02:56.601Z,69.47
2018-02-08T23:05:23.921Z,67.80
2018-02-08T23:07:50.791Z,65.37
2018-02-08T23:10:17.734Z,70.93
2018-02-08T23:12:44.608Z,72.50
2018-02-08T23:15:11.566Z,71.87
2018-02-08T23:17:39.310Z,81.93
2018-02-08T23:20:06.180Z,64.83
2018-02-08T23:22:33.136Z,73.77
2018-02-08T23:25:00.104Z,64.73
2018-02-08T23:27:26.976Z,66.93
2018-02-08T23:29:53.913Z,75.30
2018-02-08T23:32:20.965Z,70.70
2018-02-08T23:34:47.841Z,69.67
2018-02-08T23:37:14.735Z,70.90
2018-02-08T23:39:41.605Z,67.90
2018-02-08T23:42:08.526Z,65.97
2018-02-08T23:44:35.418Z,68.30
2018-02-08T23:47:03.178Z,64.37
2018-02-08T23:49:30.025Z,65.30
2018-02-08T23:51:56.940Z,74.33
2018-02-08T23:54:24.213Z,83.07
2018-02-08T23:56:51.083Z,73.47
2018-02-08T23:59:18.027Z,95.57
